Time;durP1;ratioP1;P1;durP2;ratioP2;P2;SDS_P1;SDS_P2;PMS_P1;PMS_P2;Temp;Humidity;BMP_temperature;BMP_pressure;BME280_temperature;BME280_humidity;BME280_pressure;Samples;Min_cycle;Max_cycle;Signal;HPM_P1;HPM_P2
2021/08/15 00:01:24;;;;;;;0.50;0.40;;;17.30;99.90;;;;;;5015494;28;20518;-67
2021/08/15 00:03:50;;;;;;;0.40;0.20;;;17.30;99.90;;;;;;5015626;28;20197;-67
2021/08/15 00:06:17;;;;;;;0.40;0.20;;;17.30;99.90;;;;;;5015681;28;20261;-67
2021/08/15 00:08:44;;;;;;;0.40;0.20;;;17.30;99.90;;;;;;5015821;28;20421;-67
2021/08/15 00:11:10;;;;;;;0.40;0.20;;;17.40;99.90;;;;;;5015388;28;20825;-66
2021/08/15 00:13:35;;;;;;;0.40;0.20;;;17.40;99.90;;;;;;5014421;28;20474;-66
2021/08/15 00:16:01;;;;;;;0.40;0.20;;;17.40;99.90;;;;;;5015606;28;20228;-66
2021/08/15 00:18:26;;;;;;;0.40;0.20;;;17.40;99.90;;;;;;5014938;28;20623;-66
2021/08/15 00:20:52;;;;;;;0.40;0.20;;;17.30;99.90;;;;;;5015298;28;20268;-66
2021/08/15 00:23:17;;;;;;;0.40;0.20;;;17.30;99.90;;;;;;5015265;28;20248;-66
2021/08/15 00:25:43;;;;;;;0.40;0.20;;;17.30;99.90;;;;;;5015143;28;20213;-66
2021/08/15 00:28:08;;;;;;;0.40;0.20;;;17.20;99.90;;;;;;5014925;28;20626;-66
2021/08/15 00:30:34;;;;;;;0.40;0.17;;;17.10;99.90;;;;;;5015131;28;20184;-66
2021/08/15 00:32:59;;;;;;;0.40;0.20;;;17.00;99.90;;;;;;5014985;28;20190;-66
2021/08/15 00:35:25;;;;;;;0.40;0.20;;;17.10;99.90;;;;;;5014855;28;20181;-66
2021/08/15 00:37:50;;;;;;;0.40;0.30;;;17.20;99.90;;;;;;5014882;28;20178;-66
2021/08/15 00:40:16;;;;;;;0.40;0.20;;;17.30;99.90;;;;;;5014712;28;20663;-66
2021/08/15 00:42:42;;;;;;;0.40;0.20;;;17.40;99.90;;;;;;5015082;28;20611;-66
2021/08/15 00:45:08;;;;;;;0.40;0.20;;;17.50;99.90;;;;;;5015001;28;20178;-66
2021/08/15 00:47:33;;;;;;;0.40;0.20;;;17.70;99.90;;;;;;5014888;28;20202;-67
2021/08/15 00:50:01;;;;;;;0.40;0.20;;;17.80;99.90;;;;;;5014716;28;20457;-67
2021/08/15 00:52:27;;;;;;;0.40;0.20;;;17.90;99.90;;;;;;5014911;28;20178;-66
2021/08/15 00:55:00;;;;;;;0.50;0.40;;;18.10;99.90;;;;;;5014687;28;20452;-66
2021/08/15 01:00:18;;;;;;;0.40;0.20;;;17.90;99.90;;;;;;5014734;28;20483;-66
2021/08/15 01:02:47;;;;;;;0.40;0.20;;;18.00;99.90;;;;;;5014822;28;20437;-66
2021/08/15 01:05:13;;;;;;;0.40;0.20;;;18.00;99.90;;;;;;5014508;28;20248;-66
2021/08/15 01:07:40;;;;;;;0.43;0.23;;;18.00;99.90;;;;;;5014404;28;20433;-66
2021/08/15 01:10:06;;;;;;;0.40;0.20;;;18.10;99.90;;;;;;5014279;28;20444;-66
2021/08/15 01:12:32;;;;;;;0.40;0.20;;;18.10;99.90;;;;;;5014396;28;20469;-66
2021/08/15 01:14:58;;;;;;;0.40;0.20;;;18.00;99.90;;;;;;5014358;28;20475;-66
2021/08/15 01:17:26;;;;;;;0.40;0.20;;;18.10;99.90;;;;;;5014545;28;20561;-66
2021/08/15 01:19:53;;;;;;;0.40;0.20;;;18.10;99.90;;;;;;5014059;28;20526;-66
2021/08/15 01:22:20;;;;;;;0.40;0.20;;;18.20;99.90;;;;;;5014418;28;20469;-66
2021/08/15 01:24:45;;;;;;;0.40;0.20;;;18.20;99.90;;;;;;5013929;28;20425;-66
2021/08/15 01:27:11;;;;;;;0.40;0.20;;;18.20;73.50;;;;;;5014121;28;20767;-66
2021/08/15 01:29:37;;;;;;;0.40;0.20;;;18.20;56.00;;;;;;5014130;28;20236;-66
2021/08/15 01:32:03;;;;;;;0.40;0.20;;;18.30;39.30;;;;;;5014205;28;20432;-66
2021/08/15 01:34:28;;;;;;;0.40;0.20;;;18.20;48.70;;;;;;5014095;28;20200;-66
2021/08/15 01:36:54;;;;;;;0.40;0.20;;;18.30;23.70;;;;;;5013998;28;20654;-66
2021/08/15 01:39:19;;;;;;;0.40;0.20;;;18.40;36.80;;;;;;5013943;28;20178;-66
2021/08/15 01:41:45;;;;;;;0.40;0.20;;;18.50;3.90;;;;;;5013946;28;20201;-66
2021/08/15 01:44:10;;;;;;;0.40;0.20;;;18.40;8.10;;;;;;5014119;28;20185;-66
2021/08/15 01:46:36;;;;;;;0.40;0.20;;;18.50;7.90;;;;;;5013937;28;20185;-66
2021/08/15 01:49:02;;;;;;;0.40;0.20;;;18.50;4.90;;;;;;5013156;28;20517;-66
2021/08/15 01:51:29;;;;;;;0.80;0.50;;;18.40;7.80;;;;;;5014212;28;20607;-66
2021/08/15 01:53:56;;;;;;;0.40;0.20;;;18.30;35.50;;;;;;5013896;28;20964;-66
2021/08/15 01:56:22;;;;;;;0.40;0.10;;;18.20;38.90;;;;;;5013775;28;20499;-66
2021/08/15 01:58:48;;;;;;;0.50;0.33;;;18.20;53.20;;;;;;5013623;28;20452;-66
2021/08/15 02:01:15;;;;;;;0.40;0.10;;;18.20;74.40;;;;;;5013708;28;20465;-66
2021/08/15 02:03:41;;;;;;;0.40;0.20;;;18.10;94.80;;;;;;5013839;28;20192;-66
2021/08/15 02:06:07;;;;;;;0.50;0.30;;;18.30;70.30;;;;;;5014369;28;20957;-66
2021/08/15 02:08:33;;;;;;;0.40;0.10;;;18.10;54.90;;;;;;5013678;28;20174;-66
2021/08/15 02:10:59;;;;;;;0.50;0.30;;;18.10;73.00;;;;;;5013838;28;20178;-66
2021/08/15 02:13:24;;;;;;;0.50;0.50;;;18.00;73.90;;;;;;5013637;28;20502;-66
2021/08/15 02:15:50;;;;;;;0.70;0.50;;;17.90;96.60;;;;;;5013935;28;20181;-66
2021/08/15 02:18:16;;;;;;;0.40;0.20;;;17.90;99.90;;;;;;5013404;28;20186;-66
2021/08/15 02:20:41;;;;;;;0.40;0.20;;;18.00;99.90;;;;;;5013721;28;20212;-66
2021/08/15 02:23:07;;;;;;;0.40;0.20;;;18.00;93.60;;;;;;5013657;28;20178;-66
2021/08/15 02:25:32;;;;;;;0.40;0.20;;;18.20;53.60;;;;;;5013674;28;20174;-66
2021/08/15 02:27:58;;;;;;;0.40;0.20;;;18.10;38.30;;;;;;5013662;28;20639;-66
2021/08/15 02:30:25;;;;;;;0.40;0.20;;;18.30;24.30;;;;;;5012491;28;20209;-66
2021/08/15 02:32:51;;;;;;;0.40;0.20;;;18.40;1.00;;;;;;5013846;28;20182;-66
2021/08/15 02:35:17;;;;;;;0.40;0.20;;;18.30;1.00;;;;;;5013895;28;20503;-66
2021/08/15 02:37:47;;;;;;;0.40;0.20;;;18.10;1.00;;;;;;5017259;28;20778;-66
2021/08/15 02:40:14;;;;;;;0.60;0.40;;;18.10;16.10;;;;;;5016977;28;20631;-66
2021/08/15 02:42:42;;;;;;;0.40;0.20;;;18.00;18.60;;;;;;5017228;28;20491;-66
2021/08/15 02:45:09;;;;;;;0.40;0.20;;;17.90;30.10;;;;;;5017199;28;20471;-66
2021/08/15 02:47:35;;;;;;;0.60;0.57;;;17.80;57.00;;;;;;5016952;28;20438;-66
2021/08/15 02:50:01;;;;;;;0.40;0.20;;;17.80;66.70;;;;;;5017408;28;20421;-66
2021/08/15 02:52:27;;;;;;;0.40;0.20;;;17.70;67.90;;;;;;5016861;28;20236;-66
2021/08/15 02:54:52;;;;;;;0.40;0.20;;;17.80;84.40;;;;;;5016918;28;20877;-66
2021/08/15 02:57:18;;;;;;;0.40;0.20;;;17.90;52.90;;;;;;5016668;28;20186;-66
2021/08/15 02:59:43;;;;;;;0.50;0.40;;;18.00;30.00;;;;;;5016742;28;20174;-66
2021/08/15 03:02:14;;;;;;;0.40;0.20;;;18.20;8.10;;;;;;5016785;28;20213;-66
2021/08/15 03:04:42;;;;;;;0.90;0.50;;;18.30;1.00;;;;;;5016923;28;20206;-67
2021/08/15 03:07:08;;;;;;;0.40;0.20;;;18.10;1.00;;;;;;5016612;28;20503;-67
2021/08/15 03:09:34;;;;;;;0.40;0.20;;;18.00;8.50;;;;;;5016735;28;20806;-67
2021/08/15 03:11:59;;;;;;;0.40;0.20;;;18.20;2.50;;;;;;5016699;28;20209;-67
2021/08/15 03:14:25;;;;;;;0.40;0.20;;;18.40;1.00;;;;;;5016750;28;20528;-67
2021/08/15 03:16:50;;;;;;;0.40;0.20;;;18.50;1.00;;;;;;5016545;28;20184;-67
2021/08/15 03:19:16;;;;;;;3.87;3.67;;;18.30;1.00;;;;;;5016439;28;20548;-67
2021/08/15 03:21:42;;;;;;;0.40;0.20;;;18.40;1.00;;;;;;5016535;28;20264;-67
2021/08/15 03:24:08;;;;;;;0.67;0.67;;;18.40;1.00;;;;;;5016580;28;20226;-67
2021/08/15 03:26:36;;;;;;;0.40;0.20;;;18.40;1.00;;;;;;5016301;28;20440;-67
2021/08/15 03:29:02;;;;;;;0.40;0.20;;;18.40;1.00;;;;;;5016305;28;20258;-67
2021/08/15 03:31:27;;;;;;;0.40;0.20;;;18.50;1.00;;;;;;5016283;28;20448;-66
2021/08/15 03:33:53;;;;;;;0.40;0.20;;;18.60;1.00;;;;;;5016256;28;20425;-66
2021/08/15 03:36:18;;;;;;;0.40;0.20;;;18.50;1.00;;;;;;5016293;28;20309;-66
2021/08/15 03:38:44;;;;;;;0.40;0.20;;;18.40;1.00;;;;;;5016183;28;20561;-67
2021/08/15 03:41:10;;;;;;;0.40;0.10;;;18.50;1.00;;;;;;5016133;28;20300;-67
2021/08/15 03:43:35;;;;;;;0.40;0.20;;;18.60;1.00;;;;;;5016000;28;20248;-67
2021/08/15 03:46:01;;;;;;;0.40;0.13;;;18.60;1.00;;;;;;5015868;28;20178;-67
2021/08/15 03:48:26;;;;;;;0.40;0.20;;;17.90;1.00;;;;;;5015654;28;20186;-67
2021/08/15 03:50:52;;;;;;;0.40;0.10;;;17.60;99.90;;;;;;5015841;28;20209;-67
2021/08/15 03:53:18;;;;;;;0.40;0.20;;;17.60;99.90;;;;;;5015969;28;20225;-67
2021/08/15 03:55:43;;;;;;;0.40;0.20;;;17.80;99.90;;;;;;5015898;28;20567;-67
2021/08/15 03:58:09;;;;;;;0.50;0.40;;;17.50;99.90;;;;;;5015457;28;20198;-67
2021/08/15 04:00:39;;;;;;;0.47;0.30;;;17.00;99.90;;;;;;5014676;28;20206;-66
2021/08/15 04:03:06;;;;;;;0.40;0.20;;;16.70;99.90;;;;;;5015769;28;20174;-66
2021/08/15 04:05:31;;;;;;;2.10;2.00;;;16.40;99.90;;;;;;5015646;28;20521;-66
2021/08/15 04:07:57;;;;;;;1.03;0.67;;;16.40;99.90;;;;;;5015477;28;20499;-66
2021/08/15 04:10:22;;;;;;;0.40;0.30;;;16.20;99.90;;;;;;5015372;28;20555;-66
2021/08/15 04:12:48;;;;;;;0.40;0.20;;;16.10;99.90;;;;;;5015885;28;20603;-66
2021/08/15 04:15:13;;;;;;;0.40;0.20;;;16.10;99.90;;;;;;5015406;28;20185;-66
2021/08/15 04:17:39;;;;;;;3.80;2.10;;;16.10;99.90;;;;;;5015261;28;20212;-66
2021/08/15 04:20:05;;;;;;;0.40;0.20;;;16.00;99.90;;;;;;5015011;28;20188;-66
2021/08/15 04:22:30;;;;;;;0.40;0.20;;;16.10;99.90;;;;;;5015178;28;20190;-66
2021/08/15 04:24:56;;;;;;;2.43;2.00;;;16.10;99.90;;;;;;5015179;28;20421;-66
2021/08/15 04:27:21;;;;;;;0.80;0.60;;;16.10;99.90;;;;;;5015076;28;20182;-66
2021/08/15 04:29:47;;;;;;;2.97;0.97;;;16.10;99.90;;;;;;5015042;28;20256;-66
2021/08/15 04:32:12;;;;;;;0.40;0.20;;;16.10;99.90;;;;;;5014227;28;20186;-66
2021/08/15 04:34:38;;;;;;;0.40;0.20;;;16.20;99.90;;;;;;5015044;28;20182;-66
2021/08/15 04:37:04;;;;;;;0.40;0.20;;;16.20;99.90;;;;;;5014795;28;20182;-66
2021/08/15 04:39:30;;;;;;;0.50;0.50;;;16.30;99.90;;;;;;5015121;28;20666;-67
2021/08/15 04:41:56;;;;;;;0.40;0.20;;;16.60;99.90;;;;;;5014911;28;20469;-67
2021/08/15 04:44:22;;;;;;;0.50;0.30;;;16.40;99.90;;;;;;5014867;28;20178;-67
2021/08/15 04:46:49;;;;;;;0.40;0.10;;;16.60;99.90;;;;;;5014687;28;20510;-67
2021/08/15 04:49:15;;;;;;;0.40;0.20;;;16.60;99.90;;;;;;5014640;28;20178;-67
2021/08/15 04:51:40;;;;;;;0.40;0.20;;;16.60;99.90;;;;;;5014916;28;20440;-67
2021/08/15 04:54:08;;;;;;;0.40;0.20;;;16.60;99.90;;;;;;5014748;28;20747;-67
2021/08/15 04:56:34;;;;;;;7.03;1.23;;;16.70;99.90;;;;;;5013558;28;20193;-67
2021/08/15 04:58:59;;;;;;;0.40;0.20;;;17.00;99.90;;;;;;5013823;28;20453;-67
2021/08/15 05:01:25;;;;;;;0.40;0.20;;;17.10;99.90;;;;;;5014338;28;20222;-67
2021/08/15 05:04:10;;;;;;;0.40;0.20;;;17.10;99.90;;;;;;5014439;28;20193;-67
2021/08/15 05:06:54;;;;;;;0.40;0.20;;;17.20;99.90;;;;;;5014669;28;20269;-67
2021/08/15 05:09:39;;;;;;;0.50;0.20;;;17.30;99.90;;;;;;5014368;28;20483;-67
2021/08/15 05:12:11;;;;;;;0.40;0.20;;;17.10;99.90;;;;;;5014095;28;20456;-67
2021/08/15 05:14:37;;;;;;;0.40;0.20;;;16.90;99.90;;;;;;5013534;28;20807;-67
2021/08/15 05:17:03;;;;;;;0.40;0.20;;;17.10;99.90;;;;;;5013833;28;20892;-67
2021/08/15 05:19:30;;;;;;;0.40;0.27;;;17.30;99.90;;;;;;5014081;28;20186;-67
2021/08/15 05:21:56;;;;;;;0.40;0.20;;;17.50;99.90;;;;;;5014225;28;20643;-67
2021/08/15 05:24:21;;;;;;;0.40;0.10;;;17.60;99.90;;;;;;5014321;28;20432;-67
2021/08/15 05:26:47;;;;;;;0.40;0.20;;;17.70;99.90;;;;;;5014179;28;20174;-67
2021/08/15 05:29:13;;;;;;;0.40;0.20;;;18.00;99.90;;;;;;5014132;28;20182;-67
2021/08/15 05:31:38;;;;;;;0.40;0.20;;;18.00;99.90;;;;;;5013226;28;20201;-67
2021/08/15 05:34:04;;;;;;;0.50;0.37;;;17.90;99.90;;;;;;5013244;28;20643;-69
2021/08/15 05:36:30;;;;;;;0.40;0.20;;;18.00;99.90;;;;;;5014121;28;20535;-69
2021/08/15 05:38:55;;;;;;;0.40;0.20;;;18.00;99.90;;;;;;5012845;28;20441;-68
2021/08/15 05:41:21;;;;;;;0.40;0.10;;;18.00;99.90;;;;;;5013903;28;20353;-68
2021/08/15 05:43:46;;;;;;;0.40;0.20;;;18.00;99.90;;;;;;5014068;28;20610;-68
2021/08/15 05:46:12;;;;;;;0.40;0.20;;;18.10;99.90;;;;;;5013928;28;20188;-68
2021/08/15 05:48:37;;;;;;;0.40;0.20;;;18.20;99.90;;;;;;5013524;28;20240;-68
2021/08/15 05:51:05;;;;;;;0.40;0.20;;;18.20;99.90;;;;;;5014033;28;20631;-68
2021/08/15 05:53:30;;;;;;;0.40;0.20;;;18.20;99.90;;;;;;5014132;28;20251;-68
2021/08/15 05:55:56;;;;;;;0.40;0.17;;;18.20;99.90;;;;;;5014441;28;20436;-68
2021/08/15 05:58:22;;;;;;;1.93;1.80;;;18.30;99.90;;;;;;5013993;28;20209;-69
2021/08/15 06:00:48;;;;;;;0.40;0.20;;;18.40;99.90;;;;;;5013339;28;20304;-68
2021/08/15 06:03:14;;;;;;;0.40;0.20;;;18.30;99.90;;;;;;5012855;28;20179;-68
2021/08/15 06:05:40;;;;;;;0.40;0.20;;;18.30;99.90;;;;;;5013781;28;20479;-68
2021/08/15 06:08:06;;;;;;;0.40;0.20;;;18.30;99.90;;;;;;5013589;28;20183;-68
2021/08/15 06:10:31;;;;;;;0.50;0.40;;;18.40;99.90;;;;;;5015383;28;20224;-68
2021/08/15 06:12:57;;;;;;;0.40;0.20;;;18.50;99.90;;;;;;5017749;28;20178;-68
2021/08/15 06:15:22;;;;;;;0.50;0.30;;;18.50;99.90;;;;;;5017817;28;20186;-68
2021/08/15 06:17:48;;;;;;;0.40;0.20;;;18.70;99.90;;;;;;5030641;28;20192;-68
2021/08/15 06:20:14;;;;;;;0.70;0.40;;;18.60;99.90;;;;;;5037102;28;20566;-68
2021/08/15 06:22:41;;;;;;;0.40;0.20;;;18.30;99.90;;;;;;5028803;28;20194;-68
2021/08/15 06:25:08;;;;;;;0.40;0.20;;;18.00;99.90;;;;;;5026231;28;20628;-68
2021/08/15 06:27:35;;;;;;;0.40;0.20;;;18.20;99.90;;;;;;5026709;28;20963;-69
2021/08/15 06:30:01;;;;;;;0.53;0.30;;;18.40;99.90;;;;;;5026565;28;20436;-68
2021/08/15 06:32:26;;;;;;;0.40;0.20;;;18.50;99.90;;;;;;5034165;28;20447;-67
2021/08/15 06:34:52;;;;;;;1.70;1.00;;;18.50;99.90;;;;;;5035468;28;20178;-67
2021/08/15 06:37:17;;;;;;;0.40;0.20;;;18.50;99.90;;;;;;5026821;28;20178;-67
2021/08/15 06:39:43;;;;;;;0.40;0.20;;;18.50;99.90;;;;;;5027369;28;20320;-67
2021/08/15 06:42:08;;;;;;;0.40;0.10;;;18.60;99.90;;;;;;5026627;28;20549;-67
2021/08/15 06:44:37;;;;;;;0.40;0.20;;;18.50;99.90;;;;;;5028564;28;20192;-67
2021/08/15 06:47:04;;;;;;;0.40;0.20;;;18.50;99.90;;;;;;5027172;28;20704;-67
2021/08/15 06:49:31;;;;;;;0.40;0.20;;;18.70;99.90;;;;;;5026718;28;20428;-69
2021/08/15 06:51:57;;;;;;;0.40;0.20;;;18.80;99.90;;;;;;5028134;28;20433;-66
2021/08/15 06:54:23;;;;;;;0.50;0.30;;;18.90;99.90;;;;;;5028007;28;20495;-66
2021/08/15 06:56:48;;;;;;;1.10;0.97;;;18.80;99.90;;;;;;5026234;28;20192;-67
2021/08/15 06:59:14;;;;;;;0.40;0.20;;;18.80;99.90;;;;;;5027638;28;20212;-67
2021/08/15 07:01:40;;;;;;;0.40;0.20;;;19.00;99.90;;;;;;5026301;28;20241;-67
2021/08/15 07:04:06;;;;;;;0.40;0.20;;;19.20;99.90;;;;;;5028672;28;20181;-68
2021/08/15 07:06:31;;;;;;;0.40;0.20;;;19.40;99.90;;;;;;5024838;28;20421;-68
2021/08/15 07:08:57;;;;;;;0.40;0.20;;;19.20;23.10;;;;;;5027402;28;20520;-68
2021/08/15 07:11:22;;;;;;;0.50;0.30;;;19.20;60.10;;;;;;5026290;28;20193;-68
2021/08/15 07:13:48;;;;;;;0.50;0.40;;;19.30;26.60;;;;;;5025905;28;20182;-67
2021/08/15 07:16:13;;;;;;;0.57;0.20;;;19.40;52.10;;;;;;5025417;28;20178;-67
2021/08/15 07:18:39;;;;;;;0.40;0.10;;;19.40;1.00;;;;;;5036297;28;20169;-67
2021/08/15 07:21:04;;;;;;;0.80;0.80;;;19.70;1.00;;;;;;5035723;28;20544;-67
2021/08/15 07:23:30;;;;;;;0.40;0.20;;;20.00;1.00;;;;;;5029695;28;20220;-67
2021/08/15 07:25:55;;;;;;;0.40;0.20;;;20.20;1.00;;;;;;5036316;28;20173;-67
2021/08/15 07:28:22;;;;;;;0.50;0.30;;;20.30;1.00;;;;;;5036353;28;20212;-67
2021/08/15 07:30:47;;;;;;;0.40;0.20;;;20.20;1.00;;;;;;5036261;28;20177;-67
2021/08/15 07:33:13;;;;;;;3.20;2.03;;;20.40;1.00;;;;;;5035318;28;20439;-67
2021/08/15 07:35:39;;;;;;;0.40;0.20;;;20.10;1.00;;;;;;5035902;28;20225;-67
2021/08/15 07:38:05;;;;;;;0.40;0.20;;;19.80;1.00;;;;;;5035706;28;20181;-67
2021/08/15 07:40:31;;;;;;;0.50;0.40;;;19.90;1.00;;;;;;5034853;28;20371;-68
2021/08/15 07:42:57;;;;;;;0.40;0.20;;;20.00;1.00;;;;;;5036140;28;21161;-66
2021/08/15 07:45:27;;;;;;;0.40;0.20;;;20.20;1.00;;;;;;5035884;28;20261;-67
2021/08/15 07:47:53;;;;;;;0.40;0.20;;;20.30;1.00;;;;;;5035970;28;20259;-67
2021/08/15 07:50:19;;;;;;;0.40;0.20;;;20.40;1.00;;;;;;5035774;28;20469;-66
2021/08/15 07:52:45;;;;;;;0.40;0.20;;;20.40;1.00;;;;;;5036063;28;20182;-67
2021/08/15 07:55:11;;;;;;;0.40;0.20;;;20.30;1.00;;;;;;5035691;28;20434;-68
2021/08/15 07:57:37;;;;;;;0.80;0.80;;;20.30;1.00;;;;;;5035562;28;20189;-67
2021/08/15 08:00:04;;;;;;;0.40;0.20;;;20.20;1.00;;;;;;5035461;28;20428;-67
2021/08/15 08:02:29;;;;;;;1.07;1.07;;;20.40;1.00;;;;;;5035620;28;20655;-67
2021/08/15 08:04:55;;;;;;;0.40;0.20;;;20.40;1.00;;;;;;5035575;28;20462;-67
2021/08/15 08:07:22;;;;;;;0.40;0.20;;;20.70;1.00;;;;;;5034691;28;20268;-67
2021/08/15 08:09:48;;;;;;;0.40;0.20;;;20.90;1.00;;;;;;5035866;28;20178;-67
2021/08/15 08:12:15;;;;;;;0.40;0.20;;;21.10;1.00;;;;;;5035516;28;20432;-66
2021/08/15 08:14:40;;;;;;;0.40;0.20;;;21.20;99.90;;;;;;5035301;28;20467;-68
2021/08/15 08:17:07;;;;;;;0.40;0.20;;;21.20;99.90;;;;;;5035281;28;20452;-68
2021/08/15 08:19:32;;;;;;;0.40;0.20;;;21.00;99.90;;;;;;5035141;28;20248;-68
2021/08/15 08:21:59;;;;;;;0.40;0.20;;;20.90;99.90;;;;;;5035088;28;20463;-67
2021/08/15 08:24:24;;;;;;;0.97;0.83;;;21.00;99.90;;;;;;5034981;28;20185;-67
2021/08/15 08:26:50;;;;;;;0.73;0.73;;;20.40;99.90;;;;;;5035036;28;20428;-67
2021/08/15 08:29:15;;;;;;;0.40;0.20;;;20.10;1.00;;;;;;5034057;28;20174;-68
2021/08/15 08:31:41;;;;;;;1.27;1.17;;;20.50;1.00;;;;;;5035055;28;20192;-70
2021/08/15 08:34:07;;;;;;;0.40;0.20;;;21.20;1.00;;;;;;5033982;28;20264;-70
2021/08/15 08:36:32;;;;;;;5.10;3.60;;;21.00;83.60;;;;;;5034888;28;20289;-71
2021/08/15 08:38:58;;;;;;;0.50;0.30;;;20.90;1.00;;;;;;5034552;28;20519;-70
2021/08/15 08:41:23;;;;;;;0.40;0.20;;;20.70;99.90;;;;;;5034992;28;20206;-71
2021/08/15 08:43:49;;;;;;;1.13;0.60;;;20.90;99.90;;;;;;5033696;28;20185;-71
2021/08/15 08:46:17;;;;;;;2.10;1.07;;;21.20;99.90;;;;;;5033723;28;20611;-72
2021/08/15 08:48:43;;;;;;;1.00;0.83;;;20.60;99.90;;;;;;5034707;28;20177;-71
2021/08/15 08:51:09;;;;;;;1.03;0.93;;;20.30;99.90;;;;;;5034745;28;20500;-72
2021/08/15 08:53:35;;;;;;;0.80;0.73;;;20.00;1.00;;;;;;5034775;28;20208;-69
2021/08/15 08:56:02;;;;;;;0.40;0.20;;;20.00;1.00;;;;;;5034556;28;20483;-71
2021/08/15 08:58:28;;;;;;;3.83;1.03;;;20.10;1.00;;;;;;5034301;28;20505;-72
2021/08/15 09:00:53;;;;;;;0.40;0.20;;;20.20;1.00;;;;;;5034271;28;20459;-71
2021/08/15 09:03:19;;;;;;;0.40;0.10;;;20.30;1.00;;;;;;5033573;28;20547;-72
2021/08/15 09:05:55;;;;;;;0.40;0.20;;;20.40;1.00;;;;;;5033567;28;20551;-70
2021/08/15 09:08:25;;;;;;;0.50;0.20;;;20.50;1.00;;;;;;5034290;28;20664;-71
2021/08/15 09:10:50;;;;;;;0.40;0.20;;;20.80;1.00;;;;;;5034389;28;20420;-72
2021/08/15 09:13:24;;;;;;;1.90;1.40;;;20.90;99.90;;;;;;5033457;28;20535;-70
2021/08/15 09:15:56;;;;;;;0.60;0.53;;;20.30;1.00;;;;;;5034503;28;20246;-70
2021/08/15 09:18:32;;;;;;;0.40;0.20;;;20.40;1.00;;;;;;5033831;28;20938;-71
2021/08/15 09:20:58;;;;;;;0.50;0.30;;;20.50;1.00;;;;;;5032650;28;20474;-70
2021/08/15 09:23:29;;;;;;;0.60;0.50;;;20.40;1.00;;;;;;5033990;28;20424;-71
2021/08/15 09:26:14;;;;;;;0.40;0.13;;;20.70;1.00;;;;;;5034092;28;20420;-70
2021/08/15 09:28:40;;;;;;;0.40;0.20;;;21.00;99.90;;;;;;5033919;28;20514;-70
2021/08/15 09:31:25;;;;;;;1.27;1.17;;;20.80;99.90;;;;;;5034133;28;20773;-70
2021/08/15 09:33:53;;;;;;;0.50;0.20;;;20.80;1.00;;;;;;5033889;28;20750;-71
2021/08/15 09:36:29;;;;;;;0.40;0.20;;;21.20;99.90;;;;;;5032574;28;20523;-72
2021/08/15 09:38:57;;;;;;;0.40;0.20;;;21.40;99.90;;;;;;5032802;28;20464;-71
2021/08/15 09:41:25;;;;;;;0.40;0.20;;;21.60;99.90;;;;;;5033780;28;20464;-71
2021/08/15 09:44:24;;;;;;;0.40;0.20;;;21.50;85.80;;;;;;5033717;28;20424;-72
2021/08/15 09:47:08;;;;;;;1.87;1.77;;;22.10;1.00;;;;;;5033301;28;20435;-72
2021/08/15 09:49:42;;;;;;;3.50;2.10;;;22.30;36.40;;;;;;5033663;28;20436;-72
2021/08/15 09:52:14;;;;;;;0.40;0.20;;;22.00;99.90;;;;;;5032848;28;20431;-72
2021/08/15 09:54:40;;;;;;;0.70;0.40;;;21.90;99.90;;;;;;5033816;28;20506;-71
2021/08/15 09:57:30;;;;;;;0.40;0.20;;;22.40;99.90;;;;;;5033596;28;20432;-71
2021/08/15 09:59:59;;;;;;;0.40;0.20;;;22.00;99.90;;;;;;5032635;28;20454;-71
2021/08/15 10:02:25;;;;;;;0.90;0.50;;;21.90;99.90;;;;;;5033723;28;20555;-72
2021/08/15 10:04:53;;;;;;;0.50;0.30;;;22.10;1.00;;;;;;5032632;28;20563;-72
2021/08/15 10:07:19;;;;;;;0.40;0.20;;;22.00;99.90;;;;;;5032889;28;20737;-70
2021/08/15 10:09:45;;;;;;;0.50;0.30;;;22.20;99.90;;;;;;5033648;28;20431;-72
2021/08/15 10:12:12;;;;;;;0.40;0.10;;;22.50;1.00;;;;;;5033736;28;20435;-71
2021/08/15 10:14:38;;;;;;;0.50;0.33;;;22.60;99.90;;;;;;5033551;28;20178;-72
2021/08/15 10:17:07;;;;;;;1.73;1.63;;;23.10;1.00;;;;;;5033448;28;20428;-71
2021/08/15 10:19:36;;;;;;;0.50;0.37;;;23.00;99.90;;;;;;5032385;28;20447;-71
2021/08/15 10:22:03;;;;;;;2.10;0.40;;;23.70;86.70;;;;;;5033659;28;20558;-71
2021/08/15 10:24:46;;;;;;;0.40;0.20;;;23.40;99.90;;;;;;5033366;28;20435;-72
2021/08/15 10:27:40;;;;;;;0.40;0.20;;;22.60;1.00;;;;;;5033166;28;20424;-71
2021/08/15 10:30:15;;;;;;;0.40;0.20;;;22.80;99.90;;;;;;5033080;28;20469;-72
2021/08/15 10:33:03;;;;;;;0.40;0.20;;;23.70;99.90;;;;;;5032391;28;20482;-73
2021/08/15 10:35:37;;;;;;;0.40;0.17;;;23.60;1.00;;;;;;5032155;28;20894;-73
2021/08/15 10:38:14;;;;;;;0.40;0.20;;;23.60;99.90;;;;;;5032119;28;20538;-72
2021/08/15 10:40:45;;;;;;;0.40;0.20;;;23.30;1.00;;;;;;5033251;28;20970;-70
2021/08/15 10:43:15;;;;;;;0.50;0.20;;;23.30;1.00;;;;;;5032368;28;20428;-71
2021/08/15 10:45:42;;;;;;;0.50;0.40;;;22.70;1.00;;;;;;5033633;28;21045;-71
2021/08/15 10:48:14;;;;;;;0.50;0.30;;;22.50;19.50;;;;;;5032861;28;20419;-71
2021/08/15 10:50:46;;;;;;;0.40;0.20;;;22.80;99.90;;;;;;5032036;28;20819;-71
2021/08/15 10:53:30;;;;;;;0.40;0.20;;;22.90;99.90;;;;;;5032800;28;20428;-71
2021/08/15 10:56:03;;;;;;;0.40;0.20;;;22.50;1.00;;;;;;5032865;28;20427;-71
2021/08/15 10:58:38;;;;;;;1.53;1.43;;;22.00;99.90;;;;;;5035034;28;20527;-71
2021/08/15 11:01:13;;;;;;;0.50;0.50;;;22.10;99.90;;;;;;5036408;28;20522;-71
2021/08/15 11:03:47;;;;;;;1.43;1.07;;;21.50;99.90;;;;;;5035454;28;20424;-73
2021/08/15 11:06:39;;;;;;;0.50;0.30;;;21.20;1.00;;;;;;5035263;28;20737;-71
2021/08/15 11:09:06;;;;;;;0.80;0.80;;;21.50;1.00;;;;;;5035111;28;20494;-71
2021/08/15 11:11:36;;;;;;;1.90;1.80;;;22.10;99.90;;;;;;5036100;28;20737;-71
2021/08/15 11:14:17;;;;;;;1.70;1.60;;;21.90;99.90;;;;;;5035114;28;20494;-71
2021/08/15 11:16:56;;;;;;;0.77;0.77;;;21.20;1.00;;;;;;5035956;28;20420;-71
2021/08/15 11:19:21;;;;;;;0.73;0.60;;;21.30;1.00;;;;;;5035952;28;20455;-71
2021/08/15 11:22:13;;;;;;;0.40;0.30;;;21.30;1.00;;;;;;5035999;28;20464;-71
2021/08/15 11:24:45;;;;;;;0.40;0.20;;;21.30;1.00;;;;;;5035946;28;20169;-72
2021/08/15 11:27:27;;;;;;;0.50;0.37;;;21.60;1.00;;;;;;5035906;28;20451;-70
2021/08/15 11:29:53;;;;;;;0.80;0.63;;;21.50;1.00;;;;;;5035740;28;20422;-70
2021/08/15 11:32:23;;;;;;;0.40;0.20;;;21.60;1.00;;;;;;5035966;28;20507;-71
2021/08/15 11:34:55;;;;;;;2.30;2.10;;;22.30;99.90;;;;;;5036058;28;20188;-71
2021/08/15 11:37:30;;;;;;;0.47;0.30;;;23.00;1.00;;;;;;5035883;28;20428;-72
2021/08/15 11:39:56;;;;;;;0.80;0.30;;;23.00;53.80;;;;;;5035810;28;20420;-71
2021/08/15 11:42:25;;;;;;;0.60;0.30;;;23.40;22.00;;;;;;5036176;28;20463;-71
2021/08/15 11:45:01;;;;;;;0.50;0.20;;;23.40;1.00;;;;;;5035744;28;20424;-71
2021/08/15 11:47:33;;;;;;;1.03;0.93;;;23.20;57.20;;;;;;5035951;28;20802;-71
2021/08/15 11:50:26;;;;;;;0.40;0.20;;;23.10;99.90;;;;;;5035612;28;20489;-71
2021/08/15 11:52:51;;;;;;;0.40;0.20;;;22.80;1.00;;;;;;5035361;28;20511;-71
2021/08/15 11:55:28;;;;;;;2.03;1.90;;;23.60;1.00;;;;;;5035528;28;20804;-71
2021/08/15 11:57:57;;;;;;;1.53;1.33;;;24.20;1.00;;;;;;5035367;28;20189;-71
2021/08/15 12:00:30;;;;;;;4.33;0.43;;;24.50;99.90;;;;;;5035153;28;20916;-71
2021/08/15 12:03:05;;;;;;;0.40;0.20;;;24.30;1.00;;;;;;5035454;28;20767;-71
2021/08/15 12:05:32;;;;;;;0.40;0.20;;;24.30;1.00;;;;;;5035444;28;20523;-71
2021/08/15 12:08:05;;;;;;;1.70;0.87;;;24.20;1.00;;;;;;5034118;28;20436;-71
2021/08/15 12:10:40;;;;;;;2.10;1.50;;;23.70;99.90;;;;;;5035431;28;20427;-71
2021/08/15 12:13:18;;;;;;;0.40;0.20;;;23.20;1.00;;;;;;5034264;28;20428;-71
2021/08/15 12:15:46;;;;;;;0.40;0.20;;;23.50;1.00;;;;;;5034937;28;20485;-71
2021/08/15 12:18:32;;;;;;;0.40;0.20;;;24.50;4.50;;;;;;5035263;28;20497;-72
2021/08/15 12:21:00;;;;;;;0.40;0.20;;;24.70;17.10;;;;;;5034165;28;20460;-72
2021/08/15 12:23:26;;;;;;;0.40;0.20;;;24.90;21.80;;;;;;5035075;28;20885;-72
2021/08/15 12:26:07;;;;;;;0.40;0.20;;;25.00;99.90;;;;;;5034931;28;20420;-72
2021/08/15 12:28:35;;;;;;;1.40;0.63;;;24.60;99.90;;;;;;5034921;28;20752;-72
2021/08/15 12:31:20;;;;;;;0.90;0.63;;;24.40;1.00;;;;;;5034942;28;20794;-72
2021/08/15 12:33:46;;;;;;;0.40;0.20;;;23.70;99.90;;;;;;5033942;28;20530;-72
2021/08/15 12:36:21;;;;;;;1.87;1.77;;;23.80;1.00;;;;;;5034834;28;20429;-71
2021/08/15 12:38:47;;;;;;;0.50;0.40;;;23.80;1.00;;;;;;5034064;28;20420;-72
2021/08/15 12:41:44;;;;;;;0.80;0.60;;;23.90;99.90;;;;;;5034768;28;20468;-71
2021/08/15 12:44:14;;;;;;;0.73;0.50;;;24.00;1.00;;;;;;5034869;28;20424;-71
2021/08/15 12:46:40;;;;;;;0.80;0.80;;;24.00;5.90;;;;;;5032046;28;20492;-71
2021/08/15 12:49:44;;;;;;;1.47;1.40;;;23.70;6.20;;;;;;5020876;28;20778;-71
2021/08/15 12:52:29;;;;;;;18.60;1.50;;;23.40;1.00;;;;;;5027410;28;20471;-71
2021/08/15 12:55:15;;;;;;;0.40;0.20;;;23.60;1.00;;;;;;5025094;28;20447;-71
2021/08/15 12:58:03;;;;;;;0.90;0.90;;;23.80;60.60;;;;;;5026130;28;20456;-67
2021/08/15 13:00:35;;;;;;;0.60;0.40;;;23.50;99.90;;;;;;5024344;28;20440;-67